Time;durP1;ratioP1;P1;durP2;ratioP2;P2;SDS_P1;SDS_P2;PMS_P1;PMS_P2;Temp;Humidity;BMP_temperature;BMP_pressure;BME280_temperature;BME280_humidity;BME280_pressure;Samples;Min_cycle;Max_cycle;Signal;HPM_P1;HPM_P2
2023/02/16 00:01:56;;;;;;;26.63;18.30;;;8.50;99.90;;;;;;5029832;28;20480;-76
2023/02/16 00:04:27;;;;;;;24.07;18.07;;;8.30;99.90;;;;;;5029583;28;20476;-77
2023/02/16 00:06:53;;;;;;;26.40;19.47;;;8.20;99.90;;;;;;5021044;28;20555;-77
2023/02/16 00:09:20;;;;;;;26.80;18.30;;;8.20;99.90;;;;;;5032889;28;20440;-77
2023/02/16 00:14:34;;;;;;;30.23;19.77;;;8.20;99.90;;;;;;5029583;28;20429;-76
2023/02/16 00:17:00;;;;;;;24.03;18.40;;;8.20;99.90;;;;;;5028147;28;20475;-75
2023/02/16 00:19:37;;;;;;;24.90;17.70;;;8.00;99.90;;;;;;5030083;28;20963;-76
2023/02/16 00:22:04;;;;;;;27.60;18.97;;;8.30;99.90;;;;;;5029874;28;20531;-76
2023/02/16 00:24:30;;;;;;;28.57;19.00;;;8.00;99.90;;;;;;5029791;28;20445;-75
2023/02/16 00:26:58;;;;;;;24.40;18.60;;;8.00;99.90;;;;;;5029569;28;20421;-76
2023/02/16 00:29:26;;;;;;;23.60;18.60;;;7.60;99.90;;;;;;5029485;28;20431;-76
2023/02/16 00:31:53;;;;;;;23.90;17.43;;;8.00;99.90;;;;;;5027918;28;20437;-77
2023/02/16 00:34:24;;;;;;;27.77;19.80;;;8.00;99.90;;;;;;5028112;28;20646;-76
2023/02/16 00:36:50;;;;;;;28.83;18.70;;;7.80;99.90;;;;;;5028840;28;21028;-77
2023/02/16 00:39:15;;;;;;;28.80;19.50;;;8.00;99.90;;;;;;5028158;28;20508;-76
2023/02/16 00:41:51;;;;;;;27.37;19.27;;;8.00;99.90;;;;;;5027608;28;20205;-76
2023/02/16 00:44:36;;;;;;;26.37;17.93;;;7.90;99.90;;;;;;5029190;28;20635;-76
2023/02/16 00:47:36;;;;;;;22.93;18.30;;;7.80;99.90;;;;;;5009846;28;20427;-76
2023/02/16 00:50:13;;;;;;;25.90;18.80;;;7.60;99.90;;;;;;5025426;28;20460;-76
2023/02/16 00:52:44;;;;;;;27.67;19.00;;;7.70;99.90;;;;;;5027845;28;20782;-77
2023/02/16 00:55:18;;;;;;;25.87;18.53;;;7.80;99.90;;;;;;5027583;28;20440;-77
2023/02/16 00:58:05;;;;;;;25.80;18.60;;;7.80;99.90;;;;;;5027262;28;20465;-77
2023/02/16 01:00:33;;;;;;;26.70;19.10;;;7.90;99.90;;;;;;5008376;28;20948;-76
2023/02/16 01:03:01;;;;;;;24.60;18.27;;;8.00;99.90;;;;;;5032160;28;20432;-76
2023/02/16 01:05:27;;;;;;;26.40;19.37;;;7.80;99.90;;;;;;5028762;28;20432;-76
2023/02/16 01:13:26;;;;;;;28.33;18.80;;;8.00;99.90;;;;;;5024384;28;20453;-77
2023/02/16 01:15:52;;;;;;;27.77;18.13;;;8.00;99.90;;;;;;5028967;28;20696;-77
2023/02/16 01:18:19;;;;;;;27.03;18.83;;;8.00;99.90;;;;;;5028652;28;20495;-76
2023/02/16 01:20:48;;;;;;;30.53;20.03;;;7.90;99.90;;;;;;5028640;28;20277;-76
2023/02/16 01:23:13;;;;;;;26.03;18.70;;;8.20;99.90;;;;;;5028478;28;20433;-76
2023/02/16 01:25:39;;;;;;;24.60;19.67;;;8.10;99.90;;;;;;5018001;28;21180;-76
2023/02/16 01:28:25;;;;;;;28.77;18.03;;;8.20;99.90;;;;;;5008829;28;20191;-76
2023/02/16 01:30:52;;;;;;;24.47;18.43;;;8.10;99.90;;;;;;5008575;28;20441;-76
2023/02/16 01:33:18;;;;;;;26.93;18.87;;;8.10;99.90;;;;;;5007531;28;20815;-76
2023/02/16 01:35:44;;;;;;;30.13;20.07;;;8.00;99.90;;;;;;5009303;28;20430;-76
2023/02/16 01:38:21;;;;;;;26.90;18.93;;;8.10;99.90;;;;;;5007384;28;20465;-76
2023/02/16 01:41:21;;;;;;;25.57;19.20;;;8.00;99.90;;;;;;5008966;28;20445;-76
2023/02/16 01:44:03;;;;;;;24.80;19.70;;;8.10;99.90;;;;;;5007546;28;20417;-77
2023/02/16 01:46:42;;;;;;;27.87;18.63;;;8.10;99.90;;;;;;5009003;28;20492;-76
2023/02/16 01:49:13;;;;;;;27.70;18.47;;;8.10;99.90;;;;;;5007580;28;20426;-75
2023/02/16 01:51:54;;;;;;;23.70;18.23;;;8.10;99.90;;;;;;5008666;28;20442;-76
2023/02/16 01:54:39;;;;;;;28.10;18.03;;;8.20;99.90;;;;;;5008933;28;20925;-76
2023/02/16 01:57:25;;;;;;;22.00;17.30;;;8.10;99.90;;;;;;5007158;28;20470;-76
2023/02/16 01:59:53;;;;;;;24.37;18.97;;;8.10;99.90;;;;;;5008908;28;20930;-76
2023/02/16 02:02:24;;;;;;;23.33;16.97;;;8.20;99.90;;;;;;5008576;28;20437;-76
2023/02/16 02:05:34;;;;;;;27.37;19.17;;;8.30;99.90;;;;;;5008706;28;20775;-76
2023/02/16 02:08:19;;;;;;;22.10;16.57;;;8.20;99.90;;;;;;5008449;28;20636;-76
2023/02/16 02:11:01;;;;;;;22.83;18.03;;;8.20;99.90;;;;;;5007145;28;20850;-77
2023/02/16 02:13:32;;;;;;;27.83;18.80;;;8.10;99.90;;;;;;5007125;28;20441;-76
2023/02/16 02:16:00;;;;;;;26.30;18.23;;;8.20;99.90;;;;;;5008788;28;20465;-77
2023/02/16 02:18:25;;;;;;;26.20;18.70;;;8.30;99.90;;;;;;5007156;28;20958;-77
2023/02/16 02:24:38;;;;;;;28.37;19.03;;;8.10;99.90;;;;;;5009877;28;20249;-76
2023/02/16 02:27:19;;;;;;;24.13;17.67;;;8.10;99.90;;;;;;5010781;28;20426;-76
2023/02/16 02:29:53;;;;;;;23.00;18.10;;;8.00;99.90;;;;;;5012203;28;20422;-76
2023/02/16 02:33:06;;;;;;;25.13;17.60;;;8.10;99.90;;;;;;5010674;28;20485;-76
2023/02/16 02:35:34;;;;;;;24.43;17.23;;;8.10;99.90;;;;;;4970378;28;20579;-76
2023/02/16 02:38:12;;;;;;;25.83;19.70;;;8.10;99.90;;;;;;5019957;28;20474;-76
2023/02/16 02:41:21;;;;;;;26.63;18.20;;;8.00;99.90;;;;;;5010692;28;20429;-77
2023/02/16 02:43:55;;;;;;;25.40;17.60;;;8.10;99.90;;;;;;5005151;28;20425;-77
2023/02/16 02:46:32;;;;;;;24.43;18.20;;;8.00;99.90;;;;;;5031031;28;20462;-76
2023/02/16 02:48:58;;;;;;;25.50;18.47;;;8.10;99.90;;;;;;5022543;28;20443;-76
2023/02/16 02:51:32;;;;;;;24.87;17.93;;;8.00;99.90;;;;;;5029792;28;20446;-77
2023/02/16 03:03:04;;;;;;;25.17;17.67;;;8.00;99.90;;;;;;5030673;28;20571;-76
2023/02/16 03:05:32;;;;;;;28.23;18.30;;;8.00;99.90;;;;;;5031219;28;20925;-77
2023/02/16 03:08:12;;;;;;;25.40;17.00;;;8.00;99.90;;;;;;5031641;28;20440;-77
2023/02/16 03:13:43;;;;;;;25.47;17.93;;;8.00;99.90;;;;;;5030371;28;20434;-77
2023/02/16 03:16:22;;;;;;;24.00;16.87;;;8.00;99.90;;;;;;5016130;28;20475;-78
2023/02/16 03:30:04;;;;;;;23.83;17.10;;;7.90;99.90;;;;;;5033932;28;20421;-78
2023/02/16 03:32:30;;;;;;;24.63;17.80;;;8.10;99.90;;;;;;5016815;28;20808;-77
2023/02/16 03:34:56;;;;;;;25.33;17.17;;;8.10;99.90;;;;;;5013801;28;20801;-78
2023/02/16 03:37:22;;;;;;;24.43;17.40;;;8.00;99.90;;;;;;5032216;28;20521;-76
2023/02/16 03:42:33;;;;;;;24.67;17.03;;;8.00;99.90;;;;;;5031981;28;20463;-79
2023/02/16 03:44:59;;;;;;;24.73;17.30;;;8.10;99.90;;;;;;5035093;28;20525;-79
2023/02/16 03:47:24;;;;;;;24.57;17.23;;;8.00;99.90;;;;;;5040849;28;20221;-78
2023/02/16 03:49:50;;;;;;;26.47;17.80;;;7.90;99.90;;;;;;5018106;28;20197;-76
2023/02/16 03:52:16;;;;;;;25.00;16.43;;;8.20;99.90;;;;;;5014846;28;20672;-77
2023/02/16 03:54:41;;;;;;;25.07;17.90;;;7.90;99.90;;;;;;5029072;28;20194;-76
2023/02/16 03:57:07;;;;;;;25.40;17.87;;;7.90;99.90;;;;;;5029955;28;20626;-76
2023/02/16 03:59:33;;;;;;;24.63;16.60;;;7.90;99.90;;;;;;5029274;28;20255;-76
2023/02/16 04:01:58;;;;;;;31.83;18.33;;;8.00;99.90;;;;;;5028725;28;20210;-76
2023/02/16 04:04:24;;;;;;;23.77;17.97;;;7.90;99.90;;;;;;5028305;28;20186;-76
2023/02/16 04:06:50;;;;;;;26.33;18.80;;;8.00;99.90;;;;;;5028901;28;20240;-76
2023/02/16 04:09:15;;;;;;;25.77;18.10;;;7.90;99.90;;;;;;5031889;28;20194;-76
2023/02/16 04:14:25;;;;;;;29.73;19.73;;;7.90;99.90;;;;;;5029494;28;20221;-77
2023/02/16 04:16:51;;;;;;;23.50;17.13;;;8.00;99.90;;;;;;5029721;28;20561;-77
2023/02/16 04:19:16;;;;;;;26.20;18.30;;;7.90;99.90;;;;;;5029502;28;20651;-77
2023/02/16 04:21:42;;;;;;;27.00;18.23;;;7.90;99.90;;;;;;5029653;28;20205;-77
2023/02/16 04:24:08;;;;;;;27.90;19.40;;;7.90;99.90;;;;;;5028246;28;20262;-77
2023/02/16 04:26:33;;;;;;;25.30;17.93;;;7.90;99.90;;;;;;5029916;28;20244;-76
2023/02/16 04:28:59;;;;;;;23.40;16.83;;;8.00;99.90;;;;;;5028233;28;20190;-77
2023/02/16 04:31:25;;;;;;;25.17;19.00;;;7.90;99.90;;;;;;5028347;28;20218;-77
2023/02/16 04:33:50;;;;;;;25.53;17.90;;;7.80;99.90;;;;;;5028680;28;20205;-77
2023/02/16 04:36:16;;;;;;;23.63;17.77;;;7.90;99.90;;;;;;5028796;28;20194;-77
2023/02/16 04:38:42;;;;;;;29.03;18.27;;;7.90;99.90;;;;;;5028336;28;20185;-77
2023/02/16 04:41:07;;;;;;;26.20;19.63;;;8.00;99.90;;;;;;5029507;28;20272;-77
2023/02/16 04:43:33;;;;;;;26.00;18.50;;;8.00;99.90;;;;;;5027424;28;20289;-77
2023/02/16 04:45:59;;;;;;;28.20;18.43;;;7.80;99.90;;;;;;5028136;28;20182;-77
2023/02/16 04:48:25;;;;;;;25.07;17.33;;;7.80;99.90;;;;;;5029009;28;20261;-77
2023/02/16 04:50:51;;;;;;;23.37;17.87;;;7.90;99.90;;;;;;5029164;28;20520;-77
2023/02/16 04:53:16;;;;;;;24.70;18.20;;;7.90;99.90;;;;;;5027766;28;20625;-77
2023/02/16 04:55:49;;;;;;;25.93;19.10;;;7.70;99.90;;;;;;5028113;28;20749;-77
2023/02/16 04:58:15;;;;;;;23.37;17.53;;;7.90;99.90;;;;;;5028094;28;20214;-76
2023/02/16 05:00:41;;;;;;;24.17;17.17;;;7.90;99.90;;;;;;5027250;28;20413;-77
2023/02/16 05:03:07;;;;;;;25.03;18.20;;;7.70;99.90;;;;;;5029107;28;20967;-77
2023/02/16 05:05:34;;;;;;;26.43;18.67;;;7.80;99.90;;;;;;5028573;28;20421;-76
2023/02/16 05:08:00;;;;;;;22.47;17.97;;;8.00;99.90;;;;;;5028356;28;20478;-77
2023/02/16 05:10:27;;;;;;;27.07;20.07;;;7.90;99.90;;;;;;5008731;28;20844;-77
2023/02/16 05:15:37;;;;;;;33.00;18.70;;;7.70;99.90;;;;;;5009328;28;20433;-76
2023/02/16 05:18:03;;;;;;;28.63;19.47;;;7.70;99.90;;;;;;5008466;28;20465;-77
2023/02/16 05:23:13;;;;;;;27.23;18.70;;;7.60;99.90;;;;;;5009327;28;20233;-77
2023/02/16 05:25:38;;;;;;;28.33;18.70;;;7.40;99.90;;;;;;5009252;28;20458;-77
2023/02/16 05:28:04;;;;;;;26.10;18.00;;;7.40;99.90;;;;;;5009316;28;20184;-77
2023/02/16 05:30:30;;;;;;;22.20;18.07;;;7.40;99.90;;;;;;5007543;28;20237;-76
2023/02/16 05:32:55;;;;;;;29.30;20.20;;;7.50;99.90;;;;;;5009034;28;20206;-76
2023/02/16 05:35:21;;;;;;;25.60;18.50;;;7.50;99.90;;;;;;5007623;28;20179;-77
2023/02/16 05:37:47;;;;;;;26.43;19.90;;;7.50;99.90;;;;;;5008882;28;20225;-76
2023/02/16 05:40:12;;;;;;;27.53;20.30;;;7.50;99.90;;;;;;5007482;28;20172;-77
2023/02/16 05:42:38;;;;;;;28.10;19.50;;;7.60;99.90;;;;;;5023359;28;20675;-77
2023/02/16 05:45:04;;;;;;;27.33;19.40;;;7.60;99.90;;;;;;5010424;28;20425;-77
2023/02/16 05:47:30;;;;;;;26.50;18.20;;;7.50;99.90;;;;;;5029020;28;20202;-77
2023/02/16 05:49:55;;;;;;;26.00;18.10;;;7.60;99.90;;;;;;5039379;28;20327;-77
2023/02/16 05:52:21;;;;;;;29.03;19.50;;;7.50;99.90;;;;;;5027753;28;20210;-77
2023/02/16 05:54:46;;;;;;;25.43;18.10;;;7.40;99.90;;;;;;5036173;28;20205;-76
2023/02/16 05:57:12;;;;;;;29.37;20.10;;;7.50;99.90;;;;;;5036773;28;20677;-77
2023/02/16 05:59:38;;;;;;;28.47;19.50;;;7.20;99.90;;;;;;5040505;28;20231;-77
2023/02/16 06:02:03;;;;;;;26.87;19.23;;;7.20;99.90;;;;;;5041051;28;20202;-77
2023/02/16 06:04:31;;;;;;;24.47;18.10;;;6.90;99.90;;;;;;5022885;28;20268;-77
2023/02/16 06:06:57;;;;;;;22.87;17.47;;;7.20;99.90;;;;;;5038658;28;20776;-77
2023/02/16 06:09:22;;;;;;;27.30;18.77;;;7.20;99.90;;;;;;5035812;28;20483;-77
2023/02/16 06:11:48;;;;;;;25.63;19.03;;;7.50;99.90;;;;;;5031878;28;20687;-77
2023/02/16 06:14:16;;;;;;;26.70;19.13;;;7.30;99.90;;;;;;5032338;28;20232;-77
2023/02/16 06:16:44;;;;;;;27.23;18.67;;;7.30;99.90;;;;;;5030933;28;20533;-77
2023/02/16 06:19:10;;;;;;;27.97;18.57;;;7.40;99.90;;;;;;5032171;28;20461;-77
2023/02/16 06:21:37;;;;;;;27.40;19.67;;;7.20;99.90;;;;;;5030441;28;20436;-76
2023/02/16 06:24:03;;;;;;;26.20;18.10;;;7.40;99.90;;;;;;5014107;28;20563;-77
2023/02/16 06:26:29;;;;;;;28.10;19.37;;;7.30;99.90;;;;;;5031556;28;20437;-76
2023/02/16 06:28:55;;;;;;;30.13;19.43;;;7.20;99.90;;;;;;5030693;28;20986;-76
2023/02/16 06:31:22;;;;;;;23.90;18.43;;;7.20;99.90;;;;;;5031568;28;20417;-76
2023/02/16 06:33:52;;;;;;;26.70;18.50;;;7.50;99.90;;;;;;5031661;28;20421;-76
2023/02/16 06:36:18;;;;;;;24.90;18.67;;;7.40;99.90;;;;;;5031349;28;20421;-77
2023/02/16 06:38:44;;;;;;;26.67;19.00;;;7.30;99.90;;;;;;5031812;28;20765;-77
2023/02/16 06:41:10;;;;;;;23.33;17.97;;;7.30;99.90;;;;;;5030921;28;20433;-76
2023/02/16 06:43:36;;;;;;;29.90;19.80;;;7.30;99.90;;;;;;5029431;28;20429;-77
2023/02/16 06:46:02;;;;;;;26.20;17.63;;;7.30;99.90;;;;;;5031490;28;20429;-76
2023/02/16 06:48:27;;;;;;;27.47;19.07;;;7.30;99.90;;;;;;5031645;28;20268;-77
2023/02/16 06:50:53;;;;;;;25.77;18.47;;;7.20;99.90;;;;;;5031404;28;20451;-77
2023/02/16 06:53:19;;;;;;;26.23;18.70;;;7.20;99.90;;;;;;5030092;28;20674;-77
2023/02/16 06:55:45;;;;;;;28.97;19.07;;;7.10;99.90;;;;;;5030465;28;20201;-76
2023/02/16 06:58:11;;;;;;;30.40;19.23;;;7.00;99.90;;;;;;5031433;28;20460;-76
2023/02/16 07:00:37;;;;;;;28.13;19.13;;;7.00;99.90;;;;;;5031280;28;20642;-76
2023/02/16 07:03:02;;;;;;;26.23;19.30;;;7.20;99.90;;;;;;5031208;28;20871;-76
2023/02/16 07:05:28;;;;;;;24.70;17.70;;;7.00;99.90;;;;;;5029992;28;20258;-77
2023/02/16 07:07:54;;;;;;;25.83;17.57;;;7.10;99.90;;;;;;5031194;28;20179;-76
2023/02/16 07:10:20;;;;;;;28.97;18.73;;;7.10;99.90;;;;;;5031835;28;20178;-77
2023/02/16 07:12:46;;;;;;;26.27;19.90;;;7.20;99.90;;;;;;5025752;28;20483;-76
2023/02/16 07:15:12;;;;;;;26.30;19.50;;;7.10;99.90;;;;;;5029745;28;20186;-77
2023/02/16 07:17:38;;;;;;;26.77;17.90;;;7.00;99.90;;;;;;5030729;28;20469;-77
2023/02/16 07:20:05;;;;;;;25.80;17.67;;;7.20;99.90;;;;;;5027365;28;20191;-77
2023/02/16 07:22:31;;;;;;;24.30;18.17;;;7.40;99.90;;;;;;5028936;28;20437;-77
2023/02/16 07:24:59;;;;;;;24.93;18.43;;;7.20;99.90;;;;;;5021430;28;20422;-77
2023/02/16 07:27:25;;;;;;;27.27;18.80;;;7.10;99.90;;;;;;5020036;28;20791;-76
2023/02/16 07:29:51;;;;;;;26.80;19.00;;;7.40;99.90;;;;;;5024036;28;20441;-78
2023/02/16 07:32:16;;;;;;;25.47;17.90;;;7.40;99.90;;;;;;5030648;28;20456;-77
2023/02/16 07:34:44;;;;;;;27.50;17.97;;;7.30;99.90;;;;;;5029852;28;20183;-77
2023/02/16 07:37:10;;;;;;;27.23;19.37;;;7.20;99.90;;;;;;5030120;28;20851;-77
2023/02/16 07:39:36;;;;;;;25.77;18.40;;;7.40;99.90;;;;;;5031116;28;20467;-77
2023/02/16 07:42:02;;;;;;;29.87;18.77;;;7.40;99.90;;;;;;5022221;28;20846;-77
2023/02/16 07:44:27;;;;;;;30.70;19.60;;;7.50;99.90;;;;;;5029771;28;20217;-77
2023/02/16 07:46:53;;;;;;;26.13;17.50;;;7.60;99.90;;;;;;5028145;28;20225;-77
2023/02/16 07:49:19;;;;;;;24.33;18.90;;;7.60;99.90;;;;;;5030446;28;20178;-77
2023/02/16 07:51:44;;;;;;;26.33;17.67;;;7.60;99.90;;;;;;5028464;28;20206;-77
2023/02/16 07:54:10;;;;;;;22.50;17.17;;;7.70;99.90;;;;;;5028597;28;20552;-76
2023/02/16 07:56:36;;;;;;;24.17;18.00;;;7.90;99.90;;;;;;5027352;28;20308;-77
2023/02/16 07:59:02;;;;;;;24.87;18.20;;;7.80;99.90;;;;;;5028401;28;20186;-77
2023/02/16 08:01:33;;;;;;;24.60;18.07;;;7.80;99.90;;;;;;5028598;28;20575;-77
2023/02/16 08:03:58;;;;;;;25.90;19.33;;;7.80;99.90;;;;;;5027546;28;20751;-77
2023/02/16 08:06:24;;;;;;;25.07;18.03;;;7.80;99.90;;;;;;5030778;28;20424;-77
2023/02/16 08:08:50;;;;;;;24.33;17.87;;;7.90;99.90;;;;;;5035636;28;20185;-77
2023/02/16 08:11:18;;;;;;;26.40;18.77;;;7.90;99.90;;;;;;5049742;28;20201;-76
2023/02/16 08:13:45;;;;;;;28.27;18.40;;;8.00;99.90;;;;;;5048342;28;20272;-77
2023/02/16 08:16:16;;;;;;;24.90;17.50;;;7.90;99.90;;;;;;5050185;28;20431;-77
2023/02/16 08:18:42;;;;;;;23.30;16.20;;;8.00;99.90;;;;;;5048252;28;20421;-76
2023/02/16 08:21:13;;;;;;;24.23;16.33;;;7.90;99.90;;;;;;5049451;28;20932;-77
2023/02/16 08:23:51;;;;;;;23.17;17.93;;;8.00;99.90;;;;;;5049596;28;20766;-77
2023/02/16 08:26:17;;;;;;;26.20;19.20;;;8.00;99.90;;;;;;5048478;28;20449;-77
2023/02/16 08:28:48;;;;;;;26.90;18.80;;;8.00;99.90;;;;;;5048157;28;20522;-77
2023/02/16 08:31:17;;;;;;;25.40;18.73;;;8.20;99.90;;;;;;5048144;28;20432;-76
2023/02/16 08:33:44;;;;;;;27.73;18.60;;;8.20;99.90;;;;;;5048116;28;20554;-77
2023/02/16 08:36:31;;;;;;;25.63;18.70;;;8.40;99.90;;;;;;5049847;28;20507;-76
2023/02/16 08:38:57;;;;;;;24.20;18.07;;;8.40;99.90;;;;;;5047966;28;20428;-76
2023/02/16 08:41:27;;;;;;;24.90;18.50;;;8.30;99.90;;;;;;5049350;28;20566;-77
2023/02/16 08:43:54;;;;;;;26.47;17.80;;;8.40;99.90;;;;;;5049075;28;20412;-77
2023/02/16 08:46:20;;;;;;;22.60;16.90;;;8.30;99.90;;;;;;5048209;28;20417;-76
2023/02/16 08:48:46;;;;;;;26.23;19.40;;;8.20;99.90;;;;;;5047854;28;20578;-77
2023/02/16 08:51:16;;;;;;;24.57;18.30;;;8.30;99.90;;;;;;5048890;28;20503;-77
2023/02/16 08:53:45;;;;;;;24.37;18.10;;;8.30;99.90;;;;;;5047718;28;20408;-77
2023/02/16 08:56:13;;;;;;;25.53;17.90;;;8.40;99.90;;;;;;5047955;28;20408;-76
2023/02/16 08:58:39;;;;;;;25.80;18.93;;;8.30;99.90;;;;;;5048929;28;20839;-77
2023/02/16 09:01:09;;;;;;;23.73;17.83;;;8.40;99.90;;;;;;5049021;28;20416;-77
2023/02/16 09:03:37;;;;;;;23.93;18.03;;;8.40;99.90;;;;;;5048671;28;20420;-77
2023/02/16 09:06:04;;;;;;;26.30;19.90;;;8.40;99.90;;;;;;5049255;28;20425;-77
2023/02/16 09:08:31;;;;;;;29.13;18.23;;;8.50;99.90;;;;;;5043386;28;20515;-77
2023/02/16 09:11:08;;;;;;;24.90;18.40;;;8.50;99.90;;;;;;5027129;28;20911;-77
2023/02/16 09:13:35;;;;;;;21.93;16.90;;;8.50;99.90;;;;;;5031513;28;20424;-79
2023/02/16 09:16:05;;;;;;;26.30;18.43;;;8.60;99.90;;;;;;5035028;28;20427;-78
2023/02/16 09:18:31;;;;;;;25.50;17.37;;;8.80;99.90;;;;;;5033654;28;20456;-78
2023/02/16 09:21:01;;;;;;;23.17;17.57;;;9.00;99.90;;;;;;5032887;28;20842;-79
2023/02/16 09:23:27;;;;;;;24.93;18.03;;;9.10;99.90;;;;;;5033863;28;20961;-78
2023/02/16 09:25:53;;;;;;;25.50;18.87;;;9.20;99.90;;;;;;5033896;28;20414;-78
2023/02/16 09:28:19;;;;;;;23.03;17.40;;;9.30;99.90;;;;;;5034290;28;20464;-77
2023/02/16 09:30:45;;;;;;;22.37;16.10;;;9.40;99.90;;;;;;5033747;28;20671;-76
2023/02/16 09:33:11;;;;;;;23.20;17.63;;;9.60;99.90;;;;;;5033402;28;20432;-78
2023/02/16 09:35:40;;;;;;;22.43;17.40;;;9.80;99.90;;;;;;5034391;28;20178;-77
2023/02/16 09:38:06;;;;;;;23.30;16.33;;;10.10;99.90;;;;;;5034468;28;20229;-78
2023/02/16 09:40:32;;;;;;;24.00;17.00;;;10.40;99.90;;;;;;5034354;28;20432;-78
2023/02/16 09:43:07;;;;;;;23.63;14.77;;;10.50;99.90;;;;;;5033519;28;20441;-78
2023/02/16 09:45:43;;;;;;;19.80;16.27;;;10.50;99.90;;;;;;5034332;28;20409;-77
2023/02/16 09:48:26;;;;;;;21.20;16.17;;;10.50;99.90;;;;;;5034680;28;20412;-77
2023/02/16 09:50:53;;;;;;;23.40;15.90;;;10.60;99.90;;;;;;5034101;28;20413;-79
2023/02/16 09:53:36;;;;;;;25.93;16.57;;;10.60;99.90;;;;;;5034683;28;20503;-78
2023/02/16 09:56:07;;;;;;;19.17;15.47;;;10.60;99.90;;;;;;5035451;28;20444;-77
2023/02/16 09:58:56;;;;;;;22.50;15.63;;;10.60;99.90;;;;;;5032587;28;20558;-79
2023/02/16 10:01:37;;;;;;;21.10;15.50;;;10.60;99.90;;;;;;5033679;28;20548;-79
2023/02/16 10:04:06;;;;;;;19.43;15.10;;;10.60;99.90;;;;;;5032858;28;20409;-78
2023/02/16 10:06:43;;;;;;;20.17;16.30;;;10.50;99.90;;;;;;5033016;28;20421;-78
2023/02/16 10:09:15;;;;;;;19.20;14.33;;;10.40;99.90;;;;;;5043721;28;20934;-79
2023/02/16 10:11:50;;;;;;;20.10;14.10;;;10.40;99.90;;;;;;5053644;28;20511;-79
2023/02/16 10:14:22;;;;;;;18.33;14.23;;;10.40;99.90;;;;;;5052183;28;20422;-79
2023/02/16 10:17:12;;;;;;;20.70;16.67;;;10.40;99.90;;;;;;5053626;28;20470;-79
2023/02/16 10:19:45;;;;;;;19.37;14.57;;;10.30;99.90;;;;;;5052167;28;20440;-78
2023/02/16 10:22:20;;;;;;;20.07;14.50;;;10.30;99.90;;;;;;5052828;28;20429;-79
2023/02/16 10:24:56;;;;;;;19.93;15.20;;;10.30;99.90;;;;;;5053926;28;20998;-79
2023/02/16 10:27:23;;;;;;;19.67;14.10;;;10.30;99.90;;;;;;5053824;28;20423;-78
2023/02/16 10:29:48;;;;;;;19.33;14.43;;;10.30;99.90;;;;;;5053875;28;20970;-77
2023/02/16 10:32:34;;;;;;;17.10;14.20;;;10.30;99.90;;;;;;5052960;28;20432;-79
2023/02/16 10:35:41;;;;;;;17.17;14.70;;;10.30;99.90;;;;;;5052341;28;20646;-78
2023/02/16 10:38:25;;;;;;;17.77;14.90;;;10.20;99.90;;;;;;5039060;28;20523;-79
2023/02/16 10:40:58;;;;;;;22.37;15.03;;;10.10;99.90;;;;;;5053508;28;20485;-78
2023/02/16 10:43:43;;;;;;;19.37;15.87;;;10.20;99.90;;;;;;5052665;28;20436;-78
2023/02/16 10:46:25;;;;;;;22.10;16.50;;;10.10;99.90;;;;;;5056502;28;20774;-78
2023/02/16 10:48:53;;;;;;;20.47;15.33;;;10.00;99.90;;;;;;5057122;28;20427;-78
2023/02/16 10:51:22;;;;;;;27.30;17.10;;;10.00;99.90;;;;;;5039019;28;20456;-79
2023/02/16 10:53:58;;;;;;;21.77;16.90;;;10.00;99.90;;;;;;5055635;28;20818;-77
2023/02/16 10:56:42;;;;;;;20.33;14.60;;;10.00;99.90;;;;;;5060624;28;20396;-76
2023/02/16 10:59:24;;;;;;;21.00;16.57;;;10.00;99.90;;;;;;5076042;28;20443;-75
2023/02/16 11:01:58;;;;;;;23.70;17.23;;;10.00;99.90;;;;;;5074090;28;20768;-78
2023/02/16 11:04:33;;;;;;;20.20;16.87;;;10.00;99.90;;;;;;5038175;28;20426;-78
2023/02/16 11:07:15;;;;;;;19.67;15.53;;;10.00;99.90;;;;;;5056077;28;20400;-78
2023/02/16 11:09:42;;;;;;;22.13;17.73;;;10.00;99.90;;;;;;5024457;28;20428;-78
2023/02/16 11:12:23;;;;;;;21.60;16.93;;;10.00;99.90;;;;;;5051698;28;20745;-78
2023/02/16 11:14:52;;;;;;;21.63;17.07;;;10.00;99.90;;;;;;5066885;28;20427;-78
2023/02/16 11:17:21;;;;;;;22.80;17.80;;;10.10;99.90;;;;;;5035836;28;20514;-78
2023/02/16 11:19:51;;;;;;;22.40;17.60;;;10.10;99.90;;;;;;5035979;28;20500;-76
2023/02/16 11:22:43;;;;;;;23.43;17.70;;;10.20;99.90;;;;;;5035993;28;20530;-78
2023/02/16 11:25:20;;;;;;;21.87;17.20;;;10.10;99.90;;;;;;5030412;28;20440;-77
2023/02/16 11:27:59;;;;;;;22.73;18.20;;;10.20;99.90;;;;;;5033040;28;20900;-78
2023/02/16 11:30:46;;;;;;;21.60;18.50;;;10.30;99.90;;;;;;5018096;28;20520;-78
2023/02/16 11:33:25;;;;;;;23.27;18.03;;;10.30;99.90;;;;;;5036075;28;20818;-78
2023/02/16 11:35:52;;;;;;;23.73;17.93;;;10.40;99.90;;;;;;5030394;28;20437;-77
2023/02/16 11:38:26;;;;;;;22.30;17.60;;;10.50;99.90;;;;;;5035809;28;20461;-78
2023/02/16 11:40:53;;;;;;;22.17;17.30;;;10.50;99.90;;;;;;5036197;28;20409;-79
2023/02/16 11:43:19;;;;;;;26.20;18.60;;;10.60;99.90;;;;;;5035776;28;20433;-79
2023/02/16 11:46:01;;;;;;;29.17;19.37;;;10.60;99.90;;;;;;5035821;28;20408;-79
2023/02/16 11:48:32;;;;;;;22.33;18.10;;;10.60;99.90;;;;;;5034312;28;20493;-79
2023/02/16 11:51:01;;;;;;;23.80;18.53;;;10.60;99.90;;;;;;5035489;28;20813;-76
2023/02/16 11:53:31;;;;;;;28.90;17.77;;;10.60;99.90;;;;;;5034111;28;20441;-79
2023/02/16 11:56:16;;;;;;;26.13;18.60;;;10.60;99.90;;;;;;5034208;28;20417;-79
2023/02/16 11:58:41;;;;;;;24.50;19.00;;;10.60;99.90;;;;;;5033987;28;20464;-79
2023/02/16 12:01:30;;;;;;;25.10;18.67;;;10.50;99.90;;;;;;5035297;28;20467;-79
2023/02/16 12:04:12;;;;;;;26.40;19.10;;;10.50;99.90;;;;;;5027303;28;20218;-76
2023/02/16 12:07:21;;;;;;;23.93;19.43;;;10.40;99.90;;;;;;5034272;28;20480;-78
2023/02/16 12:10:06;;;;;;;25.70;18.77;;;10.40;99.90;;;;;;5049512;28;20427;-78
2023/02/16 12:13:17;;;;;;;24.60;19.20;;;10.40;99.90;;;;;;5054812;28;20460;-79
2023/02/16 12:16:03;;;;;;;24.20;19.27;;;10.50;99.90;;;;;;4967451;28;20424;-79
2023/02/16 12:19:08;;;;;;;24.43;18.63;;;10.40;99.90;;;;;;5055092;28;20456;-79
2023/02/16 12:21:46;;;;;;;26.97;17.97;;;10.50;99.90;;;;;;5024046;28;20864;-78
2023/02/16 12:24:29;;;;;;;24.70;19.63;;;10.40;99.90;;;;;;5055314;28;20415;-78
2023/02/16 12:26:59;;;;;;;24.70;19.83;;;10.40;99.90;;;;;;5054202;28;20420;-79
2023/02/16 12:29:34;;;;;;;25.60;18.90;;;10.50;99.90;;;;;;5055403;28;20431;-78
2023/02/16 12:32:14;;;;;;;22.63;19.07;;;10.40;99.90;;;;;;5037374;28;20451;-79
2023/02/16 12:35:17;;;;;;;28.60;20.10;;;10.40;99.90;;;;;;5036980;28;20420;-79
2023/02/16 12:38:24;;;;;;;25.73;19.17;;;10.40;99.90;;;;;;5053746;28;20486;-76
2023/02/16 12:41:01;;;;;;;24.13;19.90;;;10.30;99.90;;;;;;5053147;28;20412;-77
2023/02/16 12:43:39;;;;;;;26.10;20.50;;;10.40;99.90;;;;;;5053797;28;20510;-79
2023/02/16 12:46:35;;;;;;;23.40;18.53;;;10.40;99.90;;;;;;5053169;28;20474;-78
2023/02/16 12:49:06;;;;;;;25.13;20.70;;;10.40;99.90;;;;;;5053014;28;20417;-79
2023/02/16 12:52:30;;;;;;;25.30;20.80;;;10.40;99.90;;;;;;5055001;28;20432;-77
2023/02/16 12:55:15;;;;;;;27.67;19.77;;;10.40;99.90;;;;;;4972853;28;20576;-77
2023/02/16 12:57:50;;;;;;;27.70;19.90;;;10.40;99.90;;;;;;4956383;28;20506;-78
2023/02/16 13:00:42;;;;;;;26.93;20.50;;;10.40;99.90;;;;;;5032906;28;20519;-79
2023/02/16 13:03:23;;;;;;;27.47;18.90;;;10.40;99.90;;;;;;5054422;28;20432;-78
2023/02/16 13:06:29;;;;;;;25.63;19.60;;;10.50;99.90;;;;;;5054364;28;20408;-79
2023/02/16 13:08:58;;;;;;;23.00;19.03;;;10.50;99.90;;;;;;5046545;28;20417;-78
2023/02/16 13:11:33;;;;;;;22.53;18.70;;;10.40;99.90;;;;;;5033029;28;20473;-78
2023/02/16 13:14:03;;;;;;;25.40;18.73;;;10.50;99.90;;;;;;5033306;28;20777;-79
2023/02/16 13:16:40;;;;;;;23.67;18.90;;;10.50;99.90;;;;;;5034300;28;20440;-79
2023/02/16 13:19:13;;;;;;;23.00;18.80;;;10.50;99.90;;;;;;5066629;28;21141;-79
2023/02/16 13:21:57;;;;;;;24.93;19.67;;;10.50;99.90;;;;;;5065988;28;20443;-78
2023/02/16 13:24:22;;;;;;;27.43;21.40;;;10.50;99.90;;;;;;5032976;28;20417;-76
2023/02/16 13:27:11;;;;;;;22.33;18.70;;;10.50;99.90;;;;;;5034557;28;20413;-79
2023/02/16 13:29:51;;;;;;;29.47;20.70;;;10.60;99.90;;;;;;5034456;28;20185;-79
2023/02/16 13:32:27;;;;;;;27.53;20.37;;;10.60;99.90;;;;;;5034355;28;20548;-79
2023/02/16 13:35:18;;;;;;;31.27;20.67;;;10.70;99.90;;;;;;5033253;28;20427;-78
2023/02/16 13:38:13;;;;;;;24.80;20.73;;;10.70;99.90;;;;;;5032612;28;20522;-77
2023/02/16 13:40:58;;;;;;;25.53;18.90;;;10.70;99.90;;;;;;5034401;28;20421;-77
2023/02/16 13:43:32;;;;;;;23.13;18.90;;;10.80;99.90;;;;;;5032765;28;21297;-78
2023/02/16 13:46:02;;;;;;;25.17;20.47;;;10.80;99.90;;;;;;5066892;28;20426;-77